Aérodrome :
LOGIN :

S'inscrire | Disclaimer

   EN    FR    IT 

 










Légende :    VFR   VFR Marginal   IFR   IFR Intensif   IFR Très Intensif
Visi : 
Plafond : 
>= 8 km
>= 3000ft
5 à 8 km
1000 à 3000 ft
1500m à 5 km
500 à 1000 ft
800 à 1500m
200 à 500 ft
< 800m
< 200 ft
Symboles :   Orages  Brouillard  Fortes neiges  Fortes précipitations  Vent > 20 kt
SIGMETs :   Divers  Orages  Givrage  Turbulence  Onde Orograph.  Cendres Volcan.







- Altitude de l'aérodrome : 1197 ft
- Code IATA : SPM


ETAD - Spangdahlem Ab

DERNIER METAR :
  • 222358Z AUTO 24014KT 9999 OVC005 07/07 A2980 RMK AO2 RAE08DZB08E19RAB22E32DZB32E53 SLP088 P0001 60009 T00730066 10080 20073 57004 TSNO

METARs EXPIRÉS :
  • 222353Z AUTO 24016G21KT 9999 OVC005 07/07 A2980 RMK AO2 RAE08DZB08E19RAB22E32DZB32E53 TSNO
  • 222322Z AUTO 24014G21KT 9999 -RA OVC005 07/07 A2980 RMK AO2 RAE08DZB08E19RAB22 TSNO
  • 222319Z AUTO 24015G22KT 9999 OVC005 07/07 A2980 RMK AO2 RAE08DZB08E19 TSNO
  • 222303Z AUTO 23015G25KT 9000 -RA BR OVC005 07/06 A2981 RMK AO2 TSNO
  • 222258Z AUTO 24016G25KT 9000 -RA BR OVC006 07/07 A2981 RMK AO2 RAE00DZB00E30RAB45 SLP091 P0000 T00740065 400890074 TSNO
  • 222245Z AUTO 24017G22KT 9999 -RA OVC006 07/07 A2981 RMK AO2 RAE00DZB00E30RAB45 TSNO
  • 222230Z AUTO 24015G21KT 9999 OVC006 07/07 A2981 RMK AO2 RAE00DZB00E30 TSNO
  • 222207Z AUTO 24016G24KT 9999 -DZ OVC007 08/07 A2981 RMK AO2 RAE00DZB00 TSNO
  • 222158Z AUTO 24017G22KT 9999 -RA OVC008 08/07 A2981 RMK AO2 RAE33RAB37 SLP091 P0002 T00750066 TSNO
  • 222148Z AUTO 24017G25KT 9999 -RA BR OVC008 08/07 A2981 RMK AO2 RAE33RAB37 TSNO
  • 222137Z AUTO 24017G23KT 9999 -RA OVC007 08/07 A2981 RMK AO2 RAE33RAB37 OVC V BKN TSNO
  • 222130Z AUTO 24019G23KT 9999 -RA BKN007 OVC011 08/07 A2981 RMK AO2 CIG 006V008 BKN V OVC
  • 222127Z AUTO 24016KT 9999 -RA BR OVC008 08/07 A2982 RMK AO2 CIG 006V008 TSNO

TAF AMD TAF ETAD
Valide du 22 à 20h jusqu'au 24 à 01h UTC


222020Z 2220/2401 24015G25KT 9000 -RA OVC005 540004 QNH2970INS
TEMPO 2220/2306 24020G35KT OVC007
BECMG 2305/2306 23015G25KT 9999 NSW OVC010 620709 621602 QNH2953INS
BECMG 2310/2311 23015G35KT 9999 OVC015 620709 621602 540004 QNH2940INS
BECMG 2315/2316 24020G35KT 9000 -SHRA BKN020 610309 611206 540004 QNH2941INS
TEMPO 2316/2324 24025G45KT TX10/2312Z TN06/2306Z LAST NO AMDS AFT 2221 NEXT 2303
Pas de NOTAMs connus pour ce terrain.



MET'MAP, la Météo Aéronautique d'un coup d'oeil ! - Copyright ORBIFLY Décembre 2007 - Disclaimer

ORBIFLY MET'MAP TEAM :

Programmation & Développement : Alexandra Zaïnal
Conception & Développement : Baudouin d'Aumeries
Co-Programmation & Développement : Marc-Olivier Méhu
Soutien technique & logistique : Manuel Goepfert

Contact : metmap@orbifly.com




SOURCES & CREDITS :

   NOAA